Time;durP1;ratioP1;P1;durP2;ratioP2;P2;SDS_P1;SDS_P2;PMS_P1;PMS_P2;Temp;Humidity;BMP_temperature;BMP_pressure;BME280_temperature;BME280_humidity;BME280_pressure;Samples;Min_cycle;Max_cycle;Signal;HPM_P1;HPM_P2
2022/12/11 13:42:10;;;;;;;9.23;2.10;;;;;;;16.09;36.99;100775.55;1919118;73;26032;-56
2022/12/11 13:44:44;;;;;;;7.28;1.87;;;;;;;16.00;37.15;100780.09;1895265;75;21154;-55
2022/12/11 13:47:16;;;;;;;4.00;2.17;;;;;;;15.95;37.24;100780.39;1897938;75;21036;-57
2022/12/11 13:49:48;;;;;;;3.62;1.77;;;;;;;15.94;37.31;100775.17;1890187;75;21055;-57
2022/12/11 13:52:29;;;;;;;5.17;2.47;;;;;;;15.89;37.48;100774.59;1889558;75;21442;-56
2022/12/11 13:54:58;;;;;;;11.90;3.75;;;;;;;15.81;37.69;100782.55;1886387;75;21118;-56
2022/12/11 13:57:30;;;;;;;7.60;3.37;;;;;;;15.74;37.93;100777.22;1886524;75;21639;-48
2022/12/11 13:59:58;;;;;;;12.70;4.25;;;;;;;15.66;38.16;100776.80;1883821;75;21076;-53
2022/12/11 14:02:33;;;;;;;11.30;4.75;;;;;;;15.60;38.36;100775.82;1886569;75;21071;-55
2022/12/11 14:05:08;;;;;;;14.85;4.40;;;;;;;15.54;38.46;100774.88;1888269;75;21067;-57
2022/12/11 14:07:40;;;;;;;14.25;4.80;;;;;;;15.50;38.60;100776.84;1885098;75;21071;-46
2022/12/11 14:10:17;;;;;;;21.70;8.80;;;;;;;15.43;38.77;100779.00;1895711;75;21059;-43
2022/12/11 14:12:55;;;;;;;14.00;5.42;;;;;;;15.36;38.96;100784.31;1887468;75;21728;-44
2022/12/11 14:15:24;;;;;;;12.23;4.67;;;;;;;15.32;39.08;100774.80;1894555;75;21059;-45
2022/12/11 14:17:54;;;;;;;13.45;5.50;;;;;;;15.27;39.19;100772.91;1893326;75;21403;-45
2022/12/11 14:20:26;;;;;;;21.23;8.53;;;;;;;15.25;39.29;100778.74;1895214;75;21450;-45
2022/12/11 14:23:19;;;;;;;9.93;4.40;;;;;;;15.20;39.44;100778.19;1886573;75;21146;-46
2022/12/11 14:26:00;;;;;;;8.87;3.10;;;;;;;15.16;39.56;100777.95;1894077;74;21516;-44
2022/12/11 14:28:31;;;;;;;17.17;6.05;;;;;;;15.13;39.69;100778.15;1891313;75;21478;-44
2022/12/11 14:31:02;;;;;;;6.87;2.80;;;;;;;15.11;39.74;100780.88;1890979;75;21523;-45
2022/12/11 14:33:37;;;;;;;5.67;2.50;;;;;;;15.08;39.79;100780.20;1896296;74;21037;-45
2022/12/11 14:36:07;;;;;;;6.55;2.80;;;;;;;15.05;39.89;100772.81;1887516;75;21099;-44
2022/12/11 14:38:38;;;;;;;5.53;2.40;;;;;;;15.01;39.93;100780.56;1891853;75;21000;-45
2022/12/11 14:41:13;;;;;;;6.17;2.37;;;;;;;14.99;40.04;100780.25;1888491;75;21833;-45
2022/12/11 14:43:47;;;;;;;7.00;2.42;;;;;;;14.95;40.08;100775.59;1864754;76;21753;-44
2022/12/11 14:46:19;;;;;;;9.85;3.12;;;;;;;14.91;40.14;100775.39;1858289;76;21196;-45
2022/12/11 14:48:53;;;;;;;8.58;3.20;;;;;;;14.88;40.24;100776.88;1865600;76;21185;-46
2022/12/11 14:51:28;;;;;;;13.08;4.47;;;;;;;14.84;40.28;100775.34;1863630;75;21643;-57
2022/12/11 14:53:57;;;;;;;17.25;4.50;;;;;;;14.81;40.34;100775.51;1871195;76;21590;-57
2022/12/11 14:56:29;;;;;;;9.43;4.95;;;;;;;14.77;40.41;100772.66;1866145;75;21503;-56
2022/12/11 14:59:08;;;;;;;16.90;5.15;;;;;;;14.74;40.48;100774.17;1863525;76;21058;-56
2022/12/11 15:01:41;;;;;;;6.55;3.20;;;;;;;14.69;40.65;100776.22;1862535;75;21129;-58
2022/12/11 15:04:36;;;;;;;10.50;4.47;;;;;;;14.64;40.73;100774.68;1868101;76;21042;-57
2022/12/11 15:07:08;;;;;;;12.23;3.40;;;;;;;14.60;40.94;100774.44;1897758;73;21070;-57
2022/12/11 15:09:41;;;;;;;10.00;3.00;;;;;;;14.59;40.98;100779.37;1905694;73;21568;-57
2022/12/11 15:12:18;;;;;;;8.60;3.17;;;;;;;14.54;41.12;100778.73;1896188;73;21176;-57
2022/12/11 15:14:55;;;;;;;14.95;3.27;;;;;;;14.55;41.19;100772.95;1902509;73;21255;-57
2022/12/11 15:17:27;;;;;;;7.90;2.85;;;;;;;14.55;41.22;100769.86;1903981;73;21129;-58
2022/12/11 15:19:58;;;;;;;6.70;2.12;;;;;;;14.57;41.24;100774.63;1894368;73;21069;-57
2022/12/11 15:22:30;;;;;;;6.53;1.98;;;;;;;14.60;41.24;100770.47;1912350;73;21011;-57
2022/12/11 15:25:00;;;;;;;5.78;2.20;;;;;;;14.64;41.14;100766.73;1904351;73;21116;-58
2022/12/11 15:27:37;;;;;;;7.30;2.62;;;;;;;14.70;40.96;100775.26;1896916;73;21511;-57
2022/12/11 15:30:27;;;;;;;3.45;1.67;;;;;;;14.73;40.81;100768.47;1900834;73;21007;-58
2022/12/11 15:33:11;;;;;;;5.28;2.15;;;;;;;14.80;40.56;100769.36;1907795;73;21176;-57
2022/12/11 15:35:40;;;;;;;;;;;;;;;14.84;40.48;100772.69;1895133;73;21042;-57
2022/12/11 15:38:29;;;;;;;7.22;2.45;;;;;;;14.85;40.15;100766.47;1908482;73;20229;-57
2022/12/11 15:40:59;;;;;;;4.90;1.95;;;;;;;14.84;40.33;100764.74;1913062;73;21101;-58
2022/12/11 15:43:30;;;;;;;4.35;1.65;;;;;;;14.86;40.17;100762.41;1912448;73;21082;-58
2022/12/11 15:46:02;;;;;;;2.67;1.67;;;;;;;14.89;40.15;100764.50;1920708;73;21549;-58
2022/12/11 15:48:31;;;;;;;3.77;1.85;;;;;;;14.87;40.14;100755.30;1912307;73;21813;-58
2022/12/11 15:51:00;;;;;;;3.47;1.72;;;;;;;14.84;40.23;100754.14;1904697;73;21042;-58
2022/12/11 15:53:29;;;;;;;4.25;1.87;;;;;;;14.80;40.33;100763.21;1904715;73;21077;-58
2022/12/11 15:55:59;;;;;;;10.40;3.98;;;;;;;14.77;40.39;100754.09;1900796;73;21168;-58
2022/12/11 15:58:28;;;;;;;6.78;2.62;;;;;;;14.73;40.50;100756.55;1899504;73;21450;-59
2022/12/11 16:00:57;;;;;;;3.85;2.17;;;;;;;14.67;40.58;100749.80;1913578;73;21551;-57
2022/12/11 16:03:26;;;;;;;21.33;7.17;;;;;;;14.59;40.76;100750.22;1898185;73;21173;-57
2022/12/11 16:05:55;;;;;;;7.67;3.17;;;;;;;14.53;40.88;100753.16;1899110;73;21165;-57
2022/12/11 16:08:24;;;;;;;25.50;7.72;;;;;;;14.47;41.04;100753.52;1913187;73;21035;-58
2022/12/11 16:10:55;;;;;;;11.05;4.28;;;;;;;14.44;41.09;100752.34;1912150;73;21425;-58
2022/12/11 16:13:23;;;;;;;8.20;2.35;;;;;;;14.38;41.24;100757.52;1911345;73;21008;-58
2022/12/11 16:15:54;;;;;;;7.28;2.55;;;;;;;14.31;41.39;100759.26;1908445;73;21157;-58
2022/12/11 16:18:25;;;;;;;13.95;3.75;;;;;;;14.26;41.46;100748.93;1919993;73;21021;-58
2022/12/11 16:20:54;;;;;;;17.50;4.65;;;;;;;14.23;41.49;100753.06;1904871;74;21084;-57
2022/12/11 16:23:23;;;;;;;22.13;5.40;;;;;;;14.18;41.55;100741.38;1916165;73;21018;-58
2022/12/11 16:25:52;;;;;;;14.93;4.72;;;;;;;14.14;41.64;100743.81;1918447;72;21046;-58
2022/12/11 16:28:21;;;;;;;6.95;2.87;;;;;;;14.09;41.70;100735.25;1913982;73;21028;-57
2022/12/11 16:30:50;;;;;;;7.90;3.27;;;;;;;14.06;41.71;100736.28;1914022;73;21014;-57
2022/12/11 16:33:19;;;;;;;7.35;2.85;;;;;;;14.05;41.67;100735.04;1920259;73;21052;-57
2022/12/11 16:35:48;;;;;;;9.85;3.02;;;;;;;14.03;41.66;100735.59;1910392;73;21026;-57
2022/12/11 16:38:16;;;;;;;9.05;4.10;;;;;;;14.01;41.68;100733.50;1902657;75;21035;-57
2022/12/11 16:40:45;;;;;;;65.00;36.30;;;;;;;13.98;41.73;100734.98;1910448;73;21067;-57
2022/12/11 16:43:14;;;;;;;18.55;5.87;;;;;;;13.93;41.83;100737.04;1907672;73;21031;-57
2022/12/11 16:45:43;;;;;;;11.25;4.30;;;;;;;13.90;41.86;100737.56;1911614;73;21026;-58
2022/12/11 16:48:12;;;;;;;8.83;4.22;;;;;;;13.89;41.87;100735.86;1917454;73;21597;-57
2022/12/11 16:50:41;;;;;;;59.42;24.55;;;;;;;13.86;41.95;100740.47;1913646;73;21676;-57
2022/12/11 16:53:13;;;;;;;24.98;10.00;;;;;;;13.81;42.05;100736.72;1917389;73;21184;-57
2022/12/11 16:55:41;;;;;;;18.92;7.78;;;;;;;13.80;42.14;100745.61;1923328;73;21010;-57
2022/12/11 16:58:14;;;;;;;16.50;9.80;;;;;;;13.82;42.14;100738.45;1915561;73;21499;-57
2022/12/11 17:00:42;;;;;;;8.78;4.12;;;;;;;13.87;42.00;100736.89;1916743;73;21181;-58
2022/12/11 17:03:10;;;;;;;7.70;3.50;;;;;;;13.94;41.92;100734.76;1924849;73;21158;-57
2022/12/11 17:05:51;;;;;;;15.25;5.50;;;;;;;13.97;41.88;100735.93;1918563;73;21026;-57
2022/12/11 17:08:21;;;;;;;10.03;5.60;;;;;;;14.00;41.88;100735.75;1879770;74;21056;-57
2022/12/11 17:10:51;;;;;;;7.83;4.15;;;;;;;14.00;41.89;100735.30;1891479;76;21044;-57
2022/12/11 17:13:20;;;;;;;12.20;6.35;;;;;;;13.99;41.93;100730.93;1889189;76;21452;-56
2022/12/11 17:15:48;;;;;;;11.33;6.58;;;;;;;14.01;41.97;100729.05;1888933;76;21106;-57
2022/12/11 17:18:19;;;;;;;8.23;4.90;;;;;;;14.06;41.89;100730.14;1886989;75;21065;-56
2022/12/11 17:20:49;;;;;;;8.00;3.22;;;;;;;14.07;41.91;100725.22;1887256;74;21068;-57
2022/12/11 17:23:18;;;;;;;6.33;3.02;;;;;;;14.08;41.94;100720.33;1886124;76;21162;-57
2022/12/11 17:25:46;;;;;;;8.25;3.35;;;;;;;14.10;41.93;100721.09;1887034;76;21197;-56
2022/12/11 17:28:15;;;;;;;12.85;5.20;;;;;;;14.12;41.91;100713.92;1891394;76;21106;-57
2022/12/11 17:30:47;;;;;;;10.55;3.87;;;;;;;14.12;41.91;100713.92;1891499;74;21041;-57
2022/12/11 17:33:17;;;;;;;7.05;3.00;;;;;;;14.09;42.02;100715.39;1891495;74;21150;-58
2022/12/11 17:35:45;;;;;;;7.40;4.12;;;;;;;14.05;42.14;100714.73;1890850;74;21041;-58
2022/12/11 17:38:14;;;;;;;17.85;8.93;;;;;;;14.00;42.24;100702.21;1890467;75;21111;-57
2022/12/11 17:40:44;;;;;;;12.15;6.15;;;;;;;14.01;42.32;100707.03;1890836;76;21040;-57
2022/12/11 17:43:13;;;;;;;13.65;5.15;;;;;;;13.99;42.44;100704.45;1890716;74;21605;-57
2022/12/11 17:45:45;;;;;;;12.80;4.62;;;;;;;14.00;42.47;100703.53;1890403;76;21032;-58
2022/12/11 17:48:15;;;;;;;9.70;3.58;;;;;;;14.02;42.54;100702.98;1889042;76;21057;-58
2022/12/11 17:50:46;;;;;;;12.85;5.08;;;;;;;14.05;42.57;100705.91;1890438;76;21009;-58
2022/12/11 17:53:17;;;;;;;21.37;6.03;;;;;;;14.09;42.49;100702.16;1890593;76;21036;-58
2022/12/11 17:55:46;;;;;;;27.25;8.38;;;;;;;14.13;42.43;100700.20;1890976;76;21025;-58
2022/12/11 17:58:19;;;;;;;19.32;7.50;;;;;;;14.17;42.33;100709.71;1890307;76;21096;-56
2022/12/11 18:00:49;;;;;;;15.48;5.85;;;;;;;14.20;42.36;100710.84;1887642;76;21161;-56
2022/12/11 18:03:19;;;;;;;6.72;3.20;;;;;;;14.19;42.50;100699.89;1891553;76;21104;-55
2022/12/11 18:05:50;;;;;;;8.58;3.12;;;;;;;14.17;42.54;100709.71;1890539;76;21076;-55
2022/12/11 18:08:21;;;;;;;8.60;3.85;;;;;;;14.15;42.61;100707.14;1891262;74;21068;-55
2022/12/11 18:10:50;;;;;;;11.68;3.40;;;;;;;14.12;42.70;100698.51;1882752;75;21431;-56
2022/12/11 18:13:19;;;;;;;10.03;3.30;;;;;;;14.12;42.72;100696.70;1882906;75;21127;-56
2022/12/11 18:15:57;;;;;;;11.28;3.95;;;;;;;14.11;42.75;100701.63;1884686;75;21518;-56
2022/12/11 18:18:28;;;;;;;11.03;4.17;;;;;;;14.10;42.79;100695.94;1886842;75;21118;-56
2022/12/11 18:20:57;;;;;;;19.82;9.45;;;;;;;14.08;42.82;100696.49;1887886;75;21118;-56
2022/12/11 18:23:26;;;;;;;18.00;7.37;;;;;;;14.06;42.95;100697.05;1884476;75;21123;-56
2022/12/11 18:25:55;;;;;;;11.38;4.97;;;;;;;14.05;43.12;100700.63;1885234;75;21123;-57
2022/12/11 18:28:23;;;;;;;11.25;4.28;;;;;;;14.06;43.14;100700.55;1887169;75;21112;-56
2022/12/11 18:30:54;;;;;;;11.40;4.90;;;;;;;14.07;43.34;100697.41;1887017;75;21130;-57
2022/12/11 18:33:23;;;;;;;8.85;3.10;;;;;;;14.05;43.57;100690.03;1885517;75;21059;-56
2022/12/11 18:35:52;;;;;;;12.78;4.95;;;;;;;14.04;43.58;100693.63;1885191;75;21072;-56
2022/12/11 18:38:21;;;;;;;8.23;3.47;;;;;;;14.02;43.71;100696.36;1882470;75;21111;-56
2022/12/11 18:40:49;;;;;;;9.50;3.90;;;;;;;13.98;43.93;100689.53;1881221;75;21041;-56
2022/12/11 18:43:18;;;;;;;9.50;3.95;;;;;;;13.99;44.07;100687.25;1886766;75;21081;-57
2022/12/11 18:45:47;;;;;;;10.40;4.10;;;;;;;13.99;44.28;100679.78;1888999;75;21076;-56
2022/12/11 18:48:16;;;;;;;6.42;3.05;;;;;;;13.99;44.32;100678.47;1884771;75;21022;-56
2022/12/11 18:50:46;;;;;;;7.60;3.85;;;;;;;14.01;44.34;100679.23;1885523;75;21104;-56
2022/12/11 18:53:16;;;;;;;5.65;2.67;;;;;;;14.06;44.26;100682.48;1886753;75;21116;-56
2022/12/11 18:55:47;;;;;;;5.17;2.40;;;;;;;14.09;44.20;100677.00;1890500;75;21000;-56
2022/12/11 18:58:19;;;;;;;8.75;3.08;;;;;;;14.16;44.03;100677.05;1885116;75;21027;-57
2022/12/11 19:00:48;;;;;;;8.18;2.77;;;;;;;14.22;44.18;100682.03;1883332;75;21161;-56
2022/12/11 19:03:17;;;;;;;5.87;2.35;;;;;;;14.26;44.22;100684.05;1886114;75;21117;-56
2022/12/11 19:05:50;;;;;;;7.60;2.62;;;;;;;14.29;44.27;100683.41;1883277;75;21123;-56
2022/12/11 19:08:16;;;;;;;5.33;2.80;;;;;;;14.27;44.57;100681.31;1893414;75;21113;-57
2022/12/11 19:10:46;;;;;;;5.35;2.72;;;;;;;14.25;45.00;100675.22;1907864;75;21063;-59
2022/12/11 19:13:15;;;;;;;5.50;3.05;;;;;;;14.21;45.41;100678.98;1916310;75;21032;-56
2022/12/11 19:15:44;;;;;;;7.30;2.55;;;;;;;14.18;45.73;100677.83;1916096;75;21043;-56
2022/12/11 19:18:13;;;;;;;6.70;3.20;;;;;;;14.13;45.85;100677.69;1906457;73;21450;-56
2022/12/11 19:20:43;;;;;;;6.87;3.45;;;;;;;14.10;46.00;100680.05;1901199;73;21037;-57
2022/12/11 19:23:12;;;;;;;7.22;3.27;;;;;;;14.04;46.28;100677.75;1948156;73;21031;-56
2022/12/11 19:25:49;;;;;;;10.95;3.77;;;;;;;13.98;46.43;100678.94;1952740;73;21019;-56
2022/12/11 19:28:18;;;;;;;8.43;2.87;;;;;;;13.90;46.97;100682.45;1952699;73;21070;-56
2022/12/11 19:30:48;;;;;;;7.97;3.55;;;;;;;13.83;47.56;100678.42;1952703;73;21027;-56
2022/12/11 19:33:17;;;;;;;5.60;2.87;;;;;;;13.75;48.01;100681.48;1952798;73;21070;-56
2022/12/11 19:35:46;;;;;;;6.03;2.05;;;;;;;13.69;48.25;100675.20;1927182;73;21049;-56
2022/12/11 19:38:15;;;;;;;8.13;3.35;;;;;;;13.62;48.44;100667.20;1917629;75;21026;-56
2022/12/11 19:40:45;;;;;;;4.92;2.22;;;;;;;13.56;48.71;100671.50;1917120;75;20976;-56
2022/12/11 19:43:13;;;;;;;17.52;2.92;;;;;;;13.49;49.32;100670.48;1917193;75;21386;-57
2022/12/11 19:45:44;;;;;;;4.10;2.37;;;;;;;13.46;49.86;100668.46;1917695;75;21508;-56
2022/12/11 19:48:13;;;;;;;10.30;4.85;;;;;;;13.41;50.15;100671.81;1917641;75;21003;-56
2022/12/11 19:50:42;;;;;;;11.57;5.10;;;;;;;13.38;50.31;100670.19;1917611;75;21100;-56
2022/12/11 19:53:11;;;;;;;8.55;3.90;;;;;;;13.37;50.46;100664.53;1916552;75;20979;-57
2022/12/11 19:55:41;;;;;;;10.63;3.05;;;;;;;13.39;50.59;100659.14;1940110;73;21105;-56
2022/12/11 19:58:09;;;;;;;6.60;2.25;;;;;;;13.39;50.71;100660.02;1952623;73;21004;-56
2022/12/11 20:00:38;;;;;;;5.83;2.17;;;;;;;13.38;50.83;100654.33;1952702;73;21012;-56
2022/12/11 20:03:07;;;;;;;5.92;2.12;;;;;;;13.40;50.90;100656.89;1952693;73;21266;-56
2022/12/11 20:05:36;;;;;;;5.55;2.60;;;;;;;13.38;51.14;100654.33;1952559;73;21035;-57
2022/12/11 20:08:05;;;;;;;6.55;2.77;;;;;;;13.38;51.24;100649.03;1952783;73;21121;-57
2022/12/11 20:10:35;;;;;;;8.58;3.75;;;;;;;13.39;51.47;100657.37;1931292;73;21059;-57
2022/12/11 20:13:04;;;;;;;5.10;2.62;;;;;;;13.40;51.56;100651.13;1928815;74;21554;-57
2022/12/11 20:15:34;;;;;;;7.37;3.55;;;;;;;13.39;51.78;100653.41;1929048;74;21039;-57
2022/12/11 20:18:03;;;;;;;4.78;2.37;;;;;;;13.39;52.10;100649.88;1928982;74;21469;-57
2022/12/11 20:20:32;;;;;;;5.50;2.77;;;;;;;13.38;52.14;100651.68;1928770;74;21027;-56
2022/12/11 20:23:00;;;;;;;6.17;2.70;;;;;;;13.39;52.10;100652.08;1928765;74;21038;-57
2022/12/11 20:25:29;;;;;;;3.72;1.57;;;;;;;13.36;52.00;100645.62;1928874;74;21011;-57
2022/12/11 20:27:58;;;;;;;6.22;2.33;;;;;;;13.33;52.01;100640.48;1928821;74;21035;-57
2022/12/11 20:30:27;;;;;;;5.17;2.33;;;;;;;13.31;52.04;100638.38;1928873;74;21059;-57
2022/12/11 20:32:56;;;;;;;2.65;1.45;;;;;;;13.29;52.02;100634.94;1899714;73;21050;-57
2022/12/11 20:35:26;;;;;;;5.50;2.95;;;;;;;13.27;51.93;100640.77;1865424;76;21046;-57
2022/12/11 20:37:54;;;;;;;5.60;1.98;;;;;;;13.28;51.91;100621.34;1863640;77;21473;-57
2022/12/11 20:40:24;;;;;;;7.25;2.98;;;;;;;13.28;51.85;100623.98;1863631;77;21090;-57
2022/12/11 20:42:53;;;;;;;8.15;3.17;;;;;;;13.24;51.94;100626.38;1863740;77;21042;-57
2022/12/11 20:45:21;;;;;;;4.58;1.85;;;;;;;13.18;52.22;100618.78;1863543;77;21100;-58
2022/12/11 20:47:50;;;;;;;10.68;3.10;;;;;;;13.14;52.29;100617.60;1863637;77;21042;-57
2022/12/11 20:50:19;;;;;;;8.08;3.40;;;;;;;13.16;52.32;100616.69;1863857;77;21026;-57
2022/12/11 20:52:48;;;;;;;5.80;2.17;;;;;;;13.16;52.40;100618.01;1863675;77;21125;-57
2022/12/11 20:55:17;;;;;;;8.28;3.62;;;;;;;13.14;52.48;100605.70;1870261;76;21147;-57
2022/12/11 20:57:46;;;;;;;10.10;2.83;;;;;;;13.14;52.51;100611.00;1863622;77;21437;-57
2022/12/11 21:00:16;;;;;;;7.12;3.17;;;;;;;13.15;52.45;100613.19;1863797;77;21065;-57
2022/12/11 21:02:45;;;;;;;6.20;2.42;;;;;;;13.16;52.49;100613.56;1863789;77;21038;-57
2022/12/11 21:05:14;;;;;;;5.83;2.37;;;;;;;13.22;52.10;100604.45;1863633;77;21030;-57
2022/12/11 21:07:43;;;;;;;4.95;2.60;;;;;;;13.31;51.85;100606.17;1877417;74;21026;-57
2022/12/11 21:10:13;;;;;;;4.05;1.87;;;;;;;13.36;51.70;100608.59;1905852;74;21046;-57
2022/12/11 21:12:42;;;;;;;3.12;1.57;;;;;;;13.43;51.29;100603.37;1886353;76;21122;-57
2022/12/11 21:15:11;;;;;;;7.67;3.25;;;;;;;13.53;50.69;100598.91;1886157;76;21070;-57
2022/12/11 21:17:39;;;;;;;5.40;2.52;;;;;;;13.62;50.31;100587.84;1886219;76;21120;-57
2022/12/11 21:20:09;;;;;;;5.37;2.33;;;;;;;13.69;50.04;100590.53;1886269;76;21296;-57
2022/12/11 21:22:37;;;;;;;6.00;2.47;;;;;;;13.76;49.45;100587.94;1914844;74;21023;-57
2022/12/11 21:25:07;;;;;;;3.45;2.15;;;;;;;13.83;49.27;100586.67;1925863;74;21200;-58
2022/12/11 21:27:36;;;;;;;6.90;3.17;;;;;;;13.93;48.65;100580.87;1928814;74;21532;-56
2022/12/11 21:30:05;;;;;;;13.03;2.40;;;;;;;14.01;48.39;100580.80;1928763;74;21047;-57
2022/12/11 21:32:34;;;;;;;6.53;2.33;;;;;;;14.02;48.20;100580.36;1928820;74;21007;-57
2022/12/11 21:35:03;;;;;;;5.22;2.33;;;;;;;14.13;47.53;100577.95;1928743;74;21003;-57
2022/12/11 21:37:32;;;;;;;4.75;2.60;;;;;;;14.19;47.38;100574.10;1928655;73;21493;-57
2022/12/11 21:40:01;;;;;;;4.47;2.10;;;;;;;14.26;47.23;100568.37;1928858;74;21016;-57
2022/12/11 21:42:29;;;;;;;4.53;2.87;;;;;;;14.27;47.35;100570.09;1928764;74;21227;-57
2022/12/11 21:44:58;;;;;;;5.80;2.60;;;;;;;14.34;46.94;100569.25;1925825;74;21078;-57
2022/12/11 21:47:27;;;;;;;5.12;2.40;;;;;;;14.40;46.70;100562.73;1928682;74;21023;-57
2022/12/11 21:49:56;;;;;;;4.78;2.35;;;;;;;14.39;46.85;100559.73;1928692;74;21116;-58
2022/12/11 21:52:25;;;;;;;6.08;2.37;;;;;;;14.40;46.83;100554.80;1928776;74;21096;-57
2022/12/11 21:54:53;;;;;;;7.12;2.50;;;;;;;14.40;46.71;100553.47;1928835;74;21062;-57
2022/12/11 21:57:22;;;;;;;3.52;1.92;;;;;;;14.38;46.90;100550.91;1887011;74;21149;-58
2022/12/11 21:59:51;;;;;;;3.35;2.10;;;;;;;14.34;47.05;100552.03;1884065;76;21681;-57
2022/12/11 22:02:20;;;;;;;9.60;2.83;;;;;;;14.32;47.12;100549.09;1885368;76;21541;-58
2022/12/11 22:04:49;;;;;;;9.43;3.08;;;;;;;14.24;47.44;100539.80;1884693;76;21164;-57
2022/12/11 22:07:17;;;;;;;5.33;2.87;;;;;;;14.20;47.58;100544.02;1885225;76;21018;-57
2022/12/11 22:09:46;;;;;;;7.97;3.00;;;;;;;14.17;47.64;100543.73;1884716;76;21035;-57
2022/12/11 22:12:23;;;;;;;8.98;3.12;;;;;;;14.13;47.71;100542.21;1905387;75;21116;-57
2022/12/11 22:14:52;;;;;;;10.70;3.27;;;;;;;14.09;47.76;100543.30;1907201;75;21074;-58
2022/12/11 22:17:21;;;;;;;10.10;3.45;;;;;;;14.05;47.85;100547.07;1919913;75;21114;-58
2022/12/11 22:19:54;;;;;;;9.68;3.47;;;;;;;13.99;48.01;100551.40;1920283;73;21046;-53
2022/12/11 22:22:20;;;;;;;8.65;3.85;;;;;;;13.89;48.19;100543.98;1948283;73;21069;-54
2022/12/11 22:24:49;;;;;;;11.55;5.15;;;;;;;13.81;48.37;100553.27;1933987;73;21007;-55
2022/12/11 22:27:18;;;;;;;7.50;3.95;;;;;;;13.65;48.67;100554.12;1920838;75;20999;-56
2022/12/11 22:29:47;;;;;;;8.30;3.35;;;;;;;13.46;48.93;100547.67;1922737;73;21018;-56
2022/12/11 22:32:16;;;;;;;9.30;4.53;;;;;;;13.31;49.21;100557.73;1931124;74;21050;-57
2022/12/11 22:34:44;;;;;;;11.05;4.67;;;;;;;13.11;49.50;100555.66;1927093;74;21081;-58
2022/12/11 22:37:13;;;;;;;9.38;4.30;;;;;;;12.91;49.89;100555.81;1901595;75;21085;-57
2022/12/11 22:39:42;;;;;;;8.93;4.17;;;;;;;12.73;50.26;100549.24;1908618;75;21034;-59
2022/12/11 22:42:11;;;;;;;14.15;5.05;;;;;;;12.58;50.44;100551.34;1910716;75;20995;-57
2022/12/11 22:44:40;;;;;;;10.70;5.55;;;;;;;12.48;50.67;100552.25;1915892;75;21209;-57
2022/12/11 22:47:08;;;;;;;13.48;5.45;;;;;;;12.38;50.97;100543.57;1916210;75;21003;-55
2022/12/11 22:49:38;;;;;;;13.25;6.00;;;;;;;12.29;51.21;100548.36;1919819;75;21039;-54
2022/12/11 22:52:07;;;;;;;11.35;4.25;;;;;;;12.22;51.38;100539.03;1933788;73;21019;-55
2022/12/11 22:54:40;;;;;;;7.75;4.15;;;;;;;12.19;51.38;100537.88;1955440;73;21027;-54
2022/12/11 22:57:09;;;;;;;11.30;5.37;;;;;;;12.21;51.38;100541.30;1940960;73;21037;-54
2022/12/11 22:59:38;;;;;;;16.45;6.12;;;;;;;12.24;51.46;100537.16;1909290;75;21145;-55
2022/12/11 23:02:07;;;;;;;13.53;5.25;;;;;;;12.26;51.49;100547.18;1911732;75;21048;-49
2022/12/11 23:04:36;;;;;;;12.28;5.28;;;;;;;12.24;51.57;100545.09;1914339;73;21022;-54
2022/12/11 23:07:04;;;;;;;10.75;5.30;;;;;;;12.16;51.82;100544.62;1912546;75;21036;-51
2022/12/11 23:09:33;;;;;;;12.35;5.10;;;;;;;12.11;51.86;100551.90;1919651;75;20995;-53
2022/12/11 23:12:02;;;;;;;10.03;4.60;;;;;;;12.04;52.06;100542.56;1915722;75;21041;-54
2022/12/11 23:14:31;;;;;;;13.45;5.28;;;;;;;12.00;52.26;100554.20;1895474;76;21116;-50
2022/12/11 23:16:59;;;;;;;8.13;3.52;;;;;;;11.91;52.39;100557.66;1895540;76;21135;-51
2022/12/11 23:19:28;;;;;;;9.25;4.72;;;;;;;11.85;52.53;100555.75;1895550;76;21049;-53
2022/12/11 23:21:57;;;;;;;11.12;3.65;;;;;;;11.76;52.71;100560.52;1895518;76;21490;-52
2022/12/11 23:24:26;;;;;;;13.55;5.37;;;;;;;11.72;52.87;100560.75;1895553;76;21041;-50
2022/12/11 23:26:54;;;;;;;10.95;3.27;;;;;;;11.72;52.96;100558.11;1895454;76;21075;-51
2022/12/11 23:29:24;;;;;;;14.40;5.08;;;;;;;11.72;53.09;100567.34;1895519;76;21131;-52
2022/12/11 23:31:52;;;;;;;8.55;4.12;;;;;;;11.72;53.13;100566.03;1895548;76;21049;-51
2022/12/11 23:34:21;;;;;;;18.02;6.35;;;;;;;11.73;53.24;100571.67;1895443;76;21084;-51
2022/12/11 23:36:50;;;;;;;10.75;4.85;;;;;;;11.66;53.38;100571.12;1904522;74;21139;-47
2022/12/11 23:39:18;;;;;;;14.07;5.28;;;;;;;11.62;53.63;100577.47;1920762;75;20991;-49
2022/12/11 23:41:47;;;;;;;11.08;4.90;;;;;;;11.62;53.55;100571.32;1920716;75;21108;-48
2022/12/11 23:44:17;;;;;;;11.65;4.65;;;;;;;11.60;53.49;100572.73;1920826;75;21042;-48
2022/12/11 23:46:46;;;;;;;6.78;3.42;;;;;;;11.53;53.73;100570.83;1920632;75;21421;-49
2022/12/11 23:49:15;;;;;;;9.90;4.80;;;;;;;11.49;53.88;100573.66;1920913;75;21038;-49
2022/12/11 23:51:44;;;;;;;14.60;5.90;;;;;;;11.50;53.98;100570.11;1920980;75;21007;-49
2022/12/11 23:54:13;;;;;;;10.23;4.72;;;;;;;11.48;53.91;100568.86;1920794;75;21489;-49
2022/12/11 23:56:41;;;;;;;7.00;3.17;;;;;;;11.42;53.85;100565.20;1920902;75;21019;-48
2022/12/11 23:59:12;;;;;;;11.70;5.55;;;;;;;11.34;53.89;100565.55;1920726;75;21122;-56
